Flight Track Log - Related Links

Times and Time Zones

All times are in EDT time to prevent confusion due to time zone crossing. See the CTL383 flight status page for this flight to view local times or setup timezone preferences in your user account.

Time Position Orientation Groundspeed Altitude Reporting Facility
EDT Latitude Longitude Course Direction KTS MPH feet Rate Location/Type
Fri 01:56:51 AM 39.1000 -94.6167 219° Southwest 104 120 2,200  Level Kansas City TRACON
Fri 01:57:51 AM 39.0667 -94.6000 159° South 129 148 3,000 800 Climbing Kansas City TRACON
Fri 01:58:51 AM 39.0500 -94.5500 113° Southeast 147 169 3,800 800 Climbing Kansas City TRACON
Fri 01:59:51 AM 39.0333 -94.5167 123° Southeast 145 167 4,600 700 Climbing Kansas City TRACON
Fri 02:00:51 AM 39.0333 -94.4667 90° East 145 167 5,200 557 Climbing Kansas City TRACON
Fri 02:02:11 AM 39.0233 -94.3983 101° East 149 171 5,900 553 Climbing Kansas City Center
Fri 02:03:12 AM 39.0153 -94.3378 100° East 154 177 6,500 537 Climbing Kansas City Center
Fri 02:04:14 AM 39.0056 -94.2867 104° East 153 176 7,000 300 Climbing Kansas City Center
Fri 02:05:12 AM 38.9975 -94.2319 101° East 163 188 7,100  Climbing Kansas City Center
Fri 02:06:15 AM 38.9894 -94.1617 98° East 177 204 7,000 -50 Descending Kansas City Center
Fri 02:07:12 AM 38.9808 -94.1006 100° East 180 207 7,000  Level Kansas City Center
Fri 02:08:15 AM 38.9764 -94.0392 95° East 180 207 7,000 50 Level Kansas City Center
Fri 02:09:13 AM 38.9733 -93.9786 94° East 178 205 7,100 50 Climbing Kansas City Center
Fri 02:10:14 AM 38.9633 -93.9083 100° East 179 206 7,100  Level Kansas City Center
Fri 02:11:15 AM 38.9608 -93.8506 93° East 177 204 7,100  Level Kansas City Center
Fri 02:12:15 AM 38.9531 -93.7858 99° East 180 207 7,100  Level Kansas City Center
Fri 02:13:14 AM 38.9428 -93.7197 101° East 178 205 7,100  Level Kansas City Center
Fri 02:14:14 AM 38.9333 -93.6558 101° East 181 208 7,100  Level Kansas City Center
Fri 02:15:14 AM 38.9239 -93.5922 101° East 182 209 7,100 50 Level Kansas City Center
Fri 02:16:15 AM 38.9161 -93.5275 99° East 184 212 7,200 50 Climbing Kansas City Center
Fri 02:17:15 AM 38.9131 -93.4622 93° East 182 209 7,200 -49 Level Kansas City Center
Fri 02:18:18 AM 38.9111 -93.3947 92° East 184 212 7,100 -50 Descending Kansas City Center
Fri 02:19:15 AM 38.9011 -93.3261 101° East 191 220 7,100  Level Kansas City Center
Fri 02:20:15 AM 38.8944 -93.2619 98° East 186 214 7,100  Level Kansas City Center
Fri 02:21:16 AM 38.8942 -93.1956 90° East 183 211 7,100  Level Kansas City Center
Fri 02:22:16 AM 38.8817 -93.1336 105° East 181 208 7,100  Level Kansas City Center
Fri 02:23:17 AM 38.8747 -93.0711 98° East 178 205 7,100  Level Kansas City Center
Fri 02:24:16 AM 38.8694 -93.0061 96° East 180 207 7,100 -50 Level Kansas City Center
Fri 02:25:16 AM 38.8658 -92.9419 94° East 181 208 7,000 -50 Descending Kansas City Center
Fri 02:26:17 AM 38.8553 -92.8800 102° East 179 206 7,000  Level Kansas City Center
Fri 02:27:17 AM 38.8450 -92.8161 102° East 180 207 7,000  Level Kansas City Center
Fri 02:28:17 AM 38.8400 -92.7508 96° East 181 208 7,000  Level Kansas City Center
Fri 02:29:17 AM 38.8342 -92.6875 97° East 180 207 7,000  Level Kansas City Center
Fri 02:30:17 AM 38.8239 -92.6256 102° East 179 206 7,000  Level Kansas City Center
Fri 02:31:17 AM 38.8117 -92.5625 104° East 181 208 7,000  Level Kansas City Center
Fri 02:32:18 AM 38.8047 -92.4972 98° East 183 211 7,000  Level Kansas City Center
Fri 02:33:18 AM 38.7956 -92.4339 101° East 182 209 7,000 49 Level Kansas City Center
Fri 02:34:21 AM 38.7872 -92.3692 99° East 183 211 7,100  Climbing Kansas City Center
Fri 02:35:18 AM 38.7781 -92.3056 100° East 182 209 7,000 -50 Descending Kansas City Center
Fri 02:36:20 AM 38.7692 -92.2392 100° East 184 212 7,000  Level Kansas City Center
Fri 02:37:18 AM 38.7653 -92.1725 94° East 187 215 7,000  Level Kansas City Center
Fri 02:38:21 AM 38.7611 -92.1058 95° East 187 215 7,000  Level Kansas City Center
Fri 02:39:20 AM 38.7547 -92.0392 97° East 188 216 7,000  Level Kansas City Center
Fri 02:40:20 AM 38.7486 -91.9753 97° East 183 211 7,000  Level Kansas City Center
Fri 02:41:20 AM 38.7428 -91.9086 96° East 187 215 7,000  Level Kansas City Center
Fri 02:42:21 AM 38.7378 -91.8431 96° East 186 214 7,000  Level Kansas City Center
Fri 02:43:22 AM 38.7303 -91.7778 98° East 185 213 7,000  Level Kansas City Center
Fri 02:44:21 AM 38.7250 -91.7108 96° East 188 216 7,000  Level Kansas City Center
Fri 02:45:22 AM 38.7219 -91.6517 94° East 183 211 7,000  Level Kansas City Center
Fri 02:46:20 AM 38.7150 -91.5856 98° East 185 213 7,000  Level Kansas City Center
Fri 02:47:20 AM 38.7089 -91.5222 97° East 183 211 7,000  Level Kansas City Center
Fri 02:48:20 AM 38.7050 -91.4581 94° East 182 209 7,000  Level Kansas City Center
Fri 02:49:20 AM 38.6992 -91.3875 96° East 181 208 7,000 -49 Level Kansas City Center
Fri 02:50:23 AM 38.6964 -91.3297 94° East 181 208 6,900  Descending Kansas City Center
Fri 02:51:21 AM 38.6892 -91.2650 98° East 184 212 7,000 51 Climbing Kansas City Center
Fri 02:52:21 AM 38.6828 -91.2008 97° East 183 211 7,000  Level Kansas City Center
Fri 02:53:21 AM 38.6744 -91.1372 100° East 182 209 7,000  Level Kansas City Center
Fri 02:54:21 AM 38.6603 -91.0756 106° East 181 208 7,000  Level Kansas City Center
Fri 02:55:21 AM 38.6478 -91.0125 104° East 182 209 7,000  Level Kansas City Center
Fri 02:56:21 AM 38.6336 -90.9503 106° East 183 211 7,000 50 Level Kansas City Center
Fri 02:57:22 AM 38.6200 -90.8881 106° East 183 211 7,100 50 Climbing Kansas City Center
Fri 02:58:22 AM 38.6111 -90.8253 100° East 182 209 7,100 -50 Level Kansas City Center
Fri 02:59:22 AM 38.6089 -90.7597 92° East 183 211 7,000 -49 Descending Kansas City Center
Fri 03:00:24 AM 38.6039 -90.6953 96° East 183 211 7,000 -248 Level Kansas City Center
Fri 03:01:23 AM 38.5986 -90.6281 96° East 188 216 6,500 -545 Descending Kansas City Center
Fri 03:02:25 AM 38.5956 -90.5583 93° East 195 224 5,900 -650 Descending Kansas City Center
Fri 03:03:23 AM 38.5922 -90.4889 93° East 197 227 5,200 -763 Descending Kansas City Center
Fri 03:04:23 AM 38.5942 -90.4189 88° East 198 228 4,400 -585 Descending Kansas City Center
Fri 03:05:26 AM 38.5967 -90.3356 88° East 198 228 4,000 -381 Descending Kansas City Center

Login

Don't have an account? Register now (free) for customized features, flight alerts, and more!